Columbia, Iowa
Current Conditions -  °F | °C
As of 9:35 PM on Wednesday 22 Oct 2014 (Local Time) from KOXV Reporting Station
Few Clouds Few Clouds  
Wind Chill: 55°   Ceiling: Unl
Heat Index: 55°   Visibility: 10mi
Dew Point: 43°   Wind: 12mph
Humidity: 63%   Direction: 140°SE
Pressure: 30.12"   Gusts: 17mph
Location:  41.18°N, 93.15°W
Report Text: KOXV 230235Z AUTO 14010G15KT 10SM FEW065 13/06 A3012 RMK AO2
Loading
Personal Weather Stations






























Interactive Weather Map
Tropical Storm Tracking
New forecast layout! Learn more

10-Day Weather Forecast

Advertisements
Track Severe Weather on mobile